Terminal Aerodrome Forecast
Issued by NWS Jackson, MS

Home | Current Version | Previous Version | Text Only | Print | Product List | Glossary On
Versions: 1 2 3 4 5 6 7 8 9 10 11 12 13 14 15 16 17 18 19 20 21 22 23 24 25 26 27 28 29 30 31 32 33 34
000
FTUS44 KMEG 301724
TAFTUP
TAF
KTUP 301724Z 3018/3118 03011KT P6SM FEW020
     FM302000 02009KT P6SM FEW250
     FM310200 VRB04KT P6SM SKC
     FM311400 14007KT P6SM SKC=

USA.gov is the U.S. government's official web portal to all federal, state and local government web resources and services.